Time;durP1;ratioP1;P1;durP2;ratioP2;P2;SDS_P1;SDS_P2;PMS_P1;PMS_P2;Temp;Humidity;BMP_temperature;BMP_pressure;BME280_temperature;BME280_humidity;BME280_pressure;Samples;Min_cycle;Max_cycle;Signal;HPM_P1;HPM_P2
2022/07/09 00:01:28;;;;;;;13.98;6.38;;;16.50;99.90;;;;;;5136385;27;20051;-74
2022/07/09 00:03:55;;;;;;;10.57;6.97;;;16.50;99.90;;;;;;5117145;27;20050;-73
2022/07/09 00:06:22;;;;;;;15.25;7.30;;;16.40;99.90;;;;;;5136294;27;20085;-74
2022/07/09 00:08:49;;;;;;;11.63;6.70;;;16.40;99.90;;;;;;5117918;27;20115;-73
2022/07/09 00:11:16;;;;;;;13.30;7.20;;;16.40;99.90;;;;;;5117064;27;20043;-74
2022/07/09 00:13:43;;;;;;;14.75;7.20;;;16.50;99.90;;;;;;5134440;27;20085;-73
2022/07/09 00:16:11;;;;;;;12.38;7.03;;;16.50;99.90;;;;;;5135944;27;20055;-74
2022/07/09 00:18:38;;;;;;;14.88;7.05;;;16.50;99.90;;;;;;5135329;27;20131;-74
2022/07/09 00:21:05;;;;;;;17.75;7.60;;;16.40;99.90;;;;;;5117638;27;20055;-74
2022/07/09 00:23:33;;;;;;;12.23;7.00;;;16.50;99.90;;;;;;5136224;27;20050;-74
2022/07/09 00:26:00;;;;;;;13.48;7.15;;;16.50;99.90;;;;;;5116710;27;20407;-74
2022/07/09 00:28:27;;;;;;;15.57;7.55;;;16.50;99.90;;;;;;5102351;28;20104;-74
2022/07/09 00:30:54;;;;;;;18.00;7.15;;;16.60;99.90;;;;;;5115306;28;20051;-74
2022/07/09 00:33:22;;;;;;;11.52;6.95;;;16.50;99.90;;;;;;5098137;27;20491;-75
2022/07/09 00:35:49;;;;;;;12.98;6.82;;;16.50;99.90;;;;;;5116832;27;20138;-74
2022/07/09 00:38:16;;;;;;;12.23;7.60;;;16.50;99.90;;;;;;5135824;27;20051;-74
2022/07/09 00:40:43;;;;;;;14.35;7.20;;;16.60;99.90;;;;;;5116642;27;20099;-74
2022/07/09 00:43:17;;;;;;;31.73;8.60;;;16.60;99.90;;;;;;5110006;27;20043;-74
2022/07/09 00:45:44;;;;;;;14.10;7.38;;;16.70;99.90;;;;;;5115849;27;20530;-73
2022/07/09 00:48:11;;;;;;;16.67;7.20;;;16.60;99.90;;;;;;5135570;27;20076;-74
2022/07/09 00:50:40;;;;;;;12.30;6.53;;;16.60;99.90;;;;;;5135474;27;20047;-74
2022/07/09 00:53:08;;;;;;;12.80;7.38;;;16.60;99.90;;;;;;5134544;27;20495;-74
2022/07/09 00:55:36;;;;;;;13.73;6.93;;;16.60;99.90;;;;;;5127001;27;20043;-74
2022/07/09 00:58:03;;;;;;;13.68;6.43;;;16.60;99.90;;;;;;5114628;28;20058;-73
2022/07/09 01:00:30;;;;;;;12.98;6.97;;;16.60;99.90;;;;;;5095397;28;20055;-73
2022/07/09 01:02:57;;;;;;;11.98;6.28;;;16.60;99.90;;;;;;5114879;28;20047;-74
2022/07/09 01:05:24;;;;;;;13.88;6.32;;;16.70;99.90;;;;;;5096345;28;20101;-74
2022/07/09 01:07:53;;;;;;;17.88;7.18;;;16.70;99.90;;;;;;5113806;28;20488;-75
2022/07/09 01:10:21;;;;;;;17.15;6.65;;;16.60;99.90;;;;;;5096791;28;20101;-75
2022/07/09 01:12:48;;;;;;;11.07;6.53;;;16.70;99.90;;;;;;5114412;28;20044;-75
2022/07/09 01:15:14;;;;;;;14.55;6.88;;;16.60;99.90;;;;;;5113831;28;20065;-74
2022/07/09 01:17:42;;;;;;;11.88;7.05;;;16.60;99.90;;;;;;5096033;28;20052;-75
2022/07/09 01:20:10;;;;;;;12.88;6.70;;;16.60;99.90;;;;;;5096447;28;20062;-74
2022/07/09 01:22:38;;;;;;;11.57;6.03;;;16.60;99.90;;;;;;5113632;28;20445;-75
2022/07/09 01:25:09;;;;;;;15.13;7.72;;;16.60;99.90;;;;;;5114324;27;20516;-75
2022/07/09 01:27:36;;;;;;;11.18;7.03;;;16.60;99.90;;;;;;5114387;28;20056;-74
2022/07/09 01:30:04;;;;;;;14.45;6.70;;;16.60;99.90;;;;;;5113481;28;20130;-74
2022/07/09 01:32:31;;;;;;;18.38;6.72;;;16.60;99.90;;;;;;5113792;28;20548;-75
2022/07/09 01:34:58;;;;;;;13.43;6.57;;;16.60;99.90;;;;;;5113306;28;20108;-76
2022/07/09 01:37:25;;;;;;;11.40;6.47;;;16.60;99.90;;;;;;5096001;28;20059;-76
2022/07/09 01:39:53;;;;;;;12.45;6.65;;;16.60;99.90;;;;;;5133989;27;20051;-75
2022/07/09 01:42:21;;;;;;;20.08;7.15;;;16.60;99.90;;;;;;5133902;27;20404;-75
2022/07/09 01:44:49;;;;;;;15.27;6.38;;;16.60;99.90;;;;;;5112400;28;20066;-75
2022/07/09 01:47:15;;;;;;;14.45;7.07;;;16.60;99.90;;;;;;5112579;28;20130;-75
2022/07/09 01:49:42;;;;;;;14.18;6.30;;;16.60;99.90;;;;;;5112051;28;20051;-74
2022/07/09 01:52:09;;;;;;;12.80;6.07;;;16.60;99.90;;;;;;5110957;28;20051;-74
2022/07/09 01:54:36;;;;;;;12.63;6.50;;;16.60;99.90;;;;;;5112443;28;20047;-75
2022/07/09 01:57:05;;;;;;;12.02;7.28;;;16.60;99.90;;;;;;5111678;28;20051;-75
2022/07/09 01:59:32;;;;;;;15.52;6.97;;;16.60;99.90;;;;;;5113702;28;20499;-75
2022/07/09 02:01:59;;;;;;;18.02;6.63;;;16.60;99.90;;;;;;5113598;28;20044;-75
2022/07/09 02:04:26;;;;;;;13.85;6.28;;;16.50;99.90;;;;;;5111899;28;20105;-76
2022/07/09 02:06:52;;;;;;;14.00;6.70;;;16.50;99.90;;;;;;5100666;28;20105;-73
2022/07/09 02:09:19;;;;;;;13.18;6.65;;;16.40;99.90;;;;;;5093283;28;20051;-74
2022/07/09 02:11:47;;;;;;;20.67;7.60;;;16.30;99.90;;;;;;5092223;28;20488;-74
2022/07/09 02:14:15;;;;;;;11.68;7.15;;;16.40;99.90;;;;;;5093167;28;20488;-73
2022/07/09 02:16:42;;;;;;;12.50;6.50;;;16.30;99.90;;;;;;5092714;28;20561;-73
2022/07/09 02:19:09;;;;;;;12.95;6.25;;;16.30;99.90;;;;;;5093315;28;20206;-73
2022/07/09 02:21:36;;;;;;;16.10;6.53;;;16.20;99.90;;;;;;5091118;28;20105;-74
2022/07/09 02:24:03;;;;;;;16.90;6.53;;;16.20;99.90;;;;;;5093256;28;20044;-74
2022/07/09 02:26:30;;;;;;;11.55;6.32;;;16.30;99.90;;;;;;5090934;28;20048;-74
2022/07/09 02:28:57;;;;;;;13.05;6.53;;;16.30;99.90;;;;;;5093097;28;20052;-73
2022/07/09 02:31:25;;;;;;;16.00;6.40;;;16.20;99.90;;;;;;5091180;28;20101;-74
2022/07/09 02:33:52;;;;;;;11.45;5.47;;;16.30;99.90;;;;;;5094040;28;20496;-73
2022/07/09 02:36:20;;;;;;;12.02;6.03;;;16.30;99.90;;;;;;5113030;28;20048;-74
2022/07/09 02:38:47;;;;;;;17.30;6.22;;;16.30;99.90;;;;;;5112744;28;20183;-74
2022/07/09 02:41:14;;;;;;;15.00;6.00;;;16.30;99.90;;;;;;5113281;28;20083;-73
2022/07/09 02:43:42;;;;;;;10.73;5.30;;;16.20;99.90;;;;;;5115822;27;20537;-73
2022/07/09 02:46:09;;;;;;;14.20;6.38;;;16.30;99.90;;;;;;5133013;28;20130;-73
2022/07/09 02:48:38;;;;;;;10.75;4.82;;;16.20;99.90;;;;;;5118913;28;20047;-73
2022/07/09 02:51:05;;;;;;;10.60;4.80;;;16.30;99.90;;;;;;5113318;28;20052;-73
2022/07/09 02:53:32;;;;;;;11.73;5.00;;;16.20;99.90;;;;;;5112377;28;20052;-74
2022/07/09 02:55:59;;;;;;;15.50;4.75;;;16.30;99.90;;;;;;5094811;28;20062;-73
2022/07/09 02:58:26;;;;;;;11.05;5.25;;;16.20;99.90;;;;;;5113105;28;20051;-73
2022/07/09 03:00:53;;;;;;;10.38;4.63;;;16.10;99.90;;;;;;5112204;28;20491;-73
2022/07/09 03:03:20;;;;;;;10.18;3.92;;;16.20;99.90;;;;;;5109071;28;20051;-73
2022/07/09 03:05:48;;;;;;;8.88;4.15;;;16.20;99.90;;;;;;5133217;28;20057;-74
2022/07/09 03:08:15;;;;;;;12.77;4.65;;;16.10;99.90;;;;;;5114624;28;20510;-73
2022/07/09 03:10:41;;;;;;;15.18;5.43;;;16.00;99.90;;;;;;5133230;28;20503;-74
2022/07/09 03:13:08;;;;;;;11.73;4.82;;;16.00;99.90;;;;;;5116494;28;20043;-74
2022/07/09 03:15:35;;;;;;;8.00;4.47;;;15.90;99.90;;;;;;5112819;28;20417;-74
2022/07/09 03:18:02;;;;;;;11.50;4.88;;;15.90;99.90;;;;;;5112506;28;20564;-74
2022/07/09 03:20:29;;;;;;;9.23;4.40;;;15.90;99.90;;;;;;5111718;28;20081;-73
2022/07/09 03:22:57;;;;;;;9.68;4.40;;;15.90;99.90;;;;;;5094451;28;20112;-73
2022/07/09 03:25:24;;;;;;;9.00;4.85;;;15.90;99.90;;;;;;5112479;28;20388;-74
2022/07/09 03:27:51;;;;;;;10.27;4.95;;;15.90;99.90;;;;;;5111918;28;20055;-72
2022/07/09 03:30:18;;;;;;;10.90;4.47;;;15.90;99.90;;;;;;5100084;28;20047;-73
2022/07/09 03:32:45;;;;;;;9.50;4.65;;;15.90;99.90;;;;;;5135550;27;20448;-74
2022/07/09 03:35:12;;;;;;;10.80;5.15;;;15.90;99.90;;;;;;5136283;27;20108;-74
2022/07/09 03:37:39;;;;;;;11.45;5.05;;;15.90;99.90;;;;;;5118738;27;20384;-75
2022/07/09 03:40:09;;;;;;;9.43;5.05;;;15.90;99.90;;;;;;5135837;27;20103;-75
2022/07/09 03:42:36;;;;;;;8.52;4.25;;;15.90;99.90;;;;;;5117439;27;20054;-74
2022/07/09 03:45:03;;;;;;;9.32;4.72;;;15.90;99.90;;;;;;5130180;27;20092;-74
2022/07/09 03:47:30;;;;;;;11.55;5.28;;;15.90;99.90;;;;;;5097862;28;20491;-75
2022/07/09 03:49:57;;;;;;;12.85;4.88;;;15.90;99.90;;;;;;5097217;28;20056;-74
2022/07/09 03:52:24;;;;;;;9.20;5.18;;;15.90;99.90;;;;;;5098141;28;20096;-75
2022/07/09 03:54:51;;;;;;;11.55;4.45;;;15.90;99.90;;;;;;5115966;28;20044;-74
2022/07/09 03:57:19;;;;;;;10.15;4.97;;;16.00;99.90;;;;;;5115051;28;20051;-74
2022/07/09 03:59:46;;;;;;;9.70;5.05;;;16.00;99.90;;;;;;5103248;27;20429;-74
2022/07/09 04:02:13;;;;;;;10.48;5.10;;;16.00;99.90;;;;;;5118238;27;20052;-73
2022/07/09 04:04:41;;;;;;;13.52;5.18;;;16.00;99.90;;;;;;5117552;27;20054;-71
2022/07/09 04:07:07;;;;;;;13.65;5.88;;;16.00;99.90;;;;;;5117940;27;20518;-74
2022/07/09 04:09:34;;;;;;;11.07;5.28;;;16.10;99.90;;;;;;5134631;27;20483;-74
2022/07/09 04:12:01;;;;;;;11.75;5.50;;;16.10;99.90;;;;;;5135847;27;20047;-74
2022/07/09 04:14:29;;;;;;;13.68;5.03;;;16.10;99.90;;;;;;5118402;27;20514;-75
2022/07/09 04:16:56;;;;;;;11.43;5.15;;;16.10;99.90;;;;;;5117849;27;20055;-75
2022/07/09 04:19:23;;;;;;;9.52;5.45;;;16.20;99.90;;;;;;5118321;27;20495;-74
2022/07/09 04:21:50;;;;;;;12.15;5.43;;;16.20;99.90;;;;;;5136988;27;20047;-75
2022/07/09 04:24:17;;;;;;;9.00;5.07;;;16.30;99.90;;;;;;5135016;27;20521;-74
2022/07/09 04:26:44;;;;;;;8.88;4.75;;;16.30;99.90;;;;;;5117610;27;20571;-74
2022/07/09 04:29:11;;;;;;;10.68;5.35;;;16.30;99.90;;;;;;5136247;27;20384;-74
2022/07/09 04:31:39;;;;;;;12.23;5.60;;;16.30;99.90;;;;;;5117056;27;20448;-74
2022/07/09 04:34:06;;;;;;;10.68;5.28;;;16.30;99.90;;;;;;5135895;27;20047;-74
2022/07/09 04:36:33;;;;;;;13.90;5.80;;;16.40;99.90;;;;;;5117599;27;20051;-74
2022/07/09 04:39:00;;;;;;;12.35;5.15;;;16.40;99.90;;;;;;5114888;27;20062;-75
2022/07/09 04:41:28;;;;;;;8.30;4.22;;;16.40;99.90;;;;;;5097001;28;20051;-76
2022/07/09 04:43:55;;;;;;;10.13;4.97;;;16.50;99.90;;;;;;5114298;28;20055;-74
2022/07/09 04:46:22;;;;;;;9.63;4.88;;;16.50;99.90;;;;;;5114990;27;20139;-75
2022/07/09 04:48:50;;;;;;;10.25;4.95;;;16.60;99.90;;;;;;5135575;27;20043;-75
2022/07/09 04:51:17;;;;;;;10.30;5.05;;;16.60;99.90;;;;;;5135539;27;20054;-75
2022/07/09 04:53:44;;;;;;;9.75;4.78;;;16.60;99.90;;;;;;5134520;27;20517;-74
2022/07/09 04:56:11;;;;;;;9.85;4.82;;;16.70;99.90;;;;;;5135152;27;20495;-75
2022/07/09 04:58:37;;;;;;;9.75;4.70;;;16.70;99.90;;;;;;5117295;27;20051;-75
2022/07/09 05:01:05;;;;;;;11.20;4.35;;;16.70;99.90;;;;;;5115835;27;20047;-74
2022/07/09 05:03:32;;;;;;;9.25;5.00;;;16.80;99.90;;;;;;5096745;28;20055;-74
2022/07/09 05:06:00;;;;;;;9.23;5.20;;;16.90;99.90;;;;;;5106244;27;20055;-74
2022/07/09 05:08:27;;;;;;;11.57;4.95;;;16.90;99.90;;;;;;5116931;27;20449;-74
2022/07/09 05:10:53;;;;;;;12.07;4.90;;;16.90;99.90;;;;;;5135302;27;20460;-74
2022/07/09 05:13:20;;;;;;;12.10;4.90;;;17.00;99.90;;;;;;5134195;27;20070;-74
2022/07/09 05:15:47;;;;;;;11.52;4.30;;;17.10;99.90;;;;;;5116748;27;20376;-75
2022/07/09 05:18:14;;;;;;;9.68;4.88;;;17.10;99.90;;;;;;5116878;27;20107;-74
2022/07/09 05:20:42;;;;;;;10.55;4.65;;;17.20;99.90;;;;;;5132321;27;20051;-73
2022/07/09 05:23:10;;;;;;;9.07;4.88;;;17.20;99.90;;;;;;5134638;27;20061;-73
2022/07/09 05:25:37;;;;;;;7.95;4.22;;;17.30;99.90;;;;;;5134833;27;20039;-74
2022/07/09 05:28:04;;;;;;;9.52;4.63;;;17.30;99.90;;;;;;5134208;27;20089;-73
2022/07/09 05:30:36;;;;;;;15.32;5.07;;;17.40;99.90;;;;;;5116619;27;20062;-75
2022/07/09 05:33:03;;;;;;;7.80;3.85;;;17.40;99.90;;;;;;5134744;27;20047;-74
2022/07/09 05:35:31;;;;;;;8.23;4.30;;;17.50;99.90;;;;;;5103941;28;20384;-72
2022/07/09 05:37:57;;;;;;;10.20;4.35;;;17.50;99.90;;;;;;5113948;28;20121;-73
2022/07/09 05:40:26;;;;;;;7.95;3.97;;;17.60;99.90;;;;;;5114046;28;20052;-73
2022/07/09 05:42:53;;;;;;;9.43;5.20;;;17.60;99.90;;;;;;5112756;28;20051;-74
2022/07/09 05:45:20;;;;;;;7.18;3.85;;;17.60;99.90;;;;;;5107355;27;20510;-75
2022/07/09 05:47:47;;;;;;;13.38;4.47;;;17.70;99.90;;;;;;5134563;27;20038;-75
2022/07/09 05:50:13;;;;;;;7.38;3.92;;;17.80;99.90;;;;;;5133280;27;20051;-75
2022/07/09 05:52:40;;;;;;;9.00;3.88;;;17.80;99.90;;;;;;5134047;27;20055;-74
2022/07/09 05:55:08;;;;;;;7.95;3.88;;;17.80;99.90;;;;;;5133766;27;20043;-74
2022/07/09 05:57:36;;;;;;;9.48;3.85;;;17.80;99.90;;;;;;5116253;27;20059;-74
2022/07/09 06:00:04;;;;;;;9.27;4.18;;;17.80;99.90;;;;;;5122098;27;20055;-74
2022/07/09 06:02:31;;;;;;;9.02;4.25;;;17.80;99.90;;;;;;5115105;28;20051;-74
2022/07/09 06:04:58;;;;;;;9.65;3.60;;;17.80;99.90;;;;;;5115618;27;20078;-75
2022/07/09 06:07:25;;;;;;;7.80;2.92;;;17.90;99.90;;;;;;5134464;27;20055;-74
2022/07/09 06:09:52;;;;;;;5.93;2.95;;;18.00;99.90;;;;;;5107448;27;20063;-74
2022/07/09 06:12:19;;;;;;;6.90;3.80;;;18.00;99.90;;;;;;5112601;28;20511;-75
2022/07/09 06:14:47;;;;;;;11.55;3.72;;;18.10;99.90;;;;;;5100705;27;20410;-76
2022/07/09 06:17:14;;;;;;;12.93;3.80;;;18.20;99.90;;;;;;5128896;27;20054;-74
2022/07/09 06:19:41;;;;;;;7.63;3.15;;;18.30;99.90;;;;;;5110909;28;20043;-76
2022/07/09 06:22:08;;;;;;;9.57;3.85;;;18.30;99.90;;;;;;5124551;28;20486;-76
2022/07/09 06:24:35;;;;;;;10.60;3.10;;;18.40;99.90;;;;;;5110144;28;20463;-74
2022/07/09 06:27:01;;;;;;;9.90;3.25;;;18.40;99.90;;;;;;5124622;28;20042;-74
2022/07/09 06:29:28;;;;;;;6.47;2.95;;;18.50;99.90;;;;;;5109630;28;20047;-75
2022/07/09 06:31:59;;;;;;;7.47;3.08;;;18.60;99.90;;;;;;5126591;28;20051;-77
2022/07/09 06:34:26;;;;;;;10.10;3.30;;;18.60;99.90;;;;;;5109200;28;20491;-75
2022/07/09 06:36:53;;;;;;;5.88;3.10;;;18.60;99.90;;;;;;5111870;28;20062;-76
2022/07/09 06:42:06;;;;;;;8.75;3.22;;;18.90;99.90;;;;;;5110398;28;20075;-75
2022/07/09 06:44:33;;;;;;;11.10;3.40;;;19.00;99.90;;;;;;5108785;28;20127;-77
2022/07/09 06:47:01;;;;;;;7.82;2.97;;;19.00;99.90;;;;;;5112656;28;20047;-77
2022/07/09 06:49:28;;;;;;;11.40;2.90;;;19.10;99.90;;;;;;5126268;28;20071;-75
2022/07/09 06:51:56;;;;;;;8.68;2.92;;;19.10;99.90;;;;;;5126079;28;20050;-75
2022/07/09 06:54:23;;;;;;;7.05;2.90;;;19.10;99.90;;;;;;5111058;28;20519;-74
2022/07/09 06:56:50;;;;;;;6.50;2.28;;;19.10;99.90;;;;;;5126199;28;20483;-74
2022/07/09 06:59:18;;;;;;;6.30;2.88;;;19.10;99.90;;;;;;5109975;28;20174;-75
2022/07/09 07:01:45;;;;;;;7.20;2.75;;;19.10;99.90;;;;;;5108278;28;20119;-77
2022/07/09 07:04:14;;;;;;;5.50;3.10;;;19.20;99.90;;;;;;5126397;28;20039;-76
2022/07/09 07:06:41;;;;;;;10.57;2.87;;;19.30;99.90;;;;;;5111128;27;20138;-76
2022/07/09 07:09:08;;;;;;;5.00;2.50;;;19.30;99.90;;;;;;5106238;27;20047;-75
2022/07/09 07:11:35;;;;;;;8.38;2.60;;;19.30;99.90;;;;;;5121848;27;20044;-74
2022/07/09 07:14:02;;;;;;;5.68;2.25;;;19.30;99.90;;;;;;5109475;27;20047;-74
2022/07/09 07:16:29;;;;;;;5.47;2.17;;;19.40;99.90;;;;;;5125466;27;20040;-74
2022/07/09 07:18:56;;;;;;;5.78;2.60;;;19.50;99.90;;;;;;5112988;27;20055;-75
2022/07/09 07:21:24;;;;;;;6.38;1.88;;;19.70;99.90;;;;;;5129030;27;20054;-75
2022/07/09 07:23:51;;;;;;;6.25;2.30;;;19.90;99.90;;;;;;5111352;27;20442;-75
2022/07/09 07:26:18;;;;;;;10.52;4.32;;;20.00;99.90;;;;;;5111741;27;20092;-76
2022/07/09 07:28:45;;;;;;;10.10;2.50;;;20.10;99.90;;;;;;5129108;27;20050;-76
2022/07/09 07:31:12;;;;;;;5.75;1.88;;;20.20;99.90;;;;;;5128791;27;20043;-75
2022/07/09 07:33:39;;;;;;;5.18;2.05;;;20.30;99.90;;;;;;5115516;27;20096;-76
2022/07/09 07:36:06;;;;;;;6.60;1.60;;;20.60;99.90;;;;;;5113016;27;20043;-75
2022/07/09 07:38:35;;;;;;;5.55;2.58;;;20.70;99.90;;;;;;5132784;27;20094;-74
2022/07/09 07:41:02;;;;;;;5.68;1.65;;;21.00;99.90;;;;;;5115468;27;20042;-75
2022/07/09 07:43:29;;;;;;;3.85;1.83;;;21.40;99.90;;;;;;5114628;27;20046;-77
2022/07/09 07:45:56;;;;;;;6.95;1.65;;;21.60;99.90;;;;;;5112284;27;20051;-76
2022/07/09 07:48:23;;;;;;;7.60;1.73;;;21.80;99.90;;;;;;5125262;27;20061;-75
2022/07/09 07:50:50;;;;;;;5.07;2.05;;;21.70;99.90;;;;;;5127323;27;20055;-75
2022/07/09 07:53:17;;;;;;;4.18;1.70;;;21.80;99.90;;;;;;5112691;27;20047;-75
2022/07/09 07:55:46;;;;;;;7.78;2.13;;;21.80;99.90;;;;;;5110551;27;20040;-75
2022/07/09 07:58:13;;;;;;;5.93;1.42;;;21.80;99.90;;;;;;5132877;27;20043;-75
2022/07/09 08:00:40;;;;;;;3.10;1.77;;;22.00;99.90;;;;;;5112555;27;20047;-74
2022/07/09 08:03:07;;;;;;;6.43;1.80;;;22.00;99.90;;;;;;5112560;27;20047;-74
2022/07/09 08:05:34;;;;;;;5.88;1.77;;;22.10;99.90;;;;;;5132969;27;20112;-75
2022/07/09 08:08:01;;;;;;;4.97;1.90;;;22.10;99.90;;;;;;5116377;27;20046;-75
2022/07/09 08:10:27;;;;;;;3.22;1.45;;;22.30;99.90;;;;;;5114664;27;20506;-75
2022/07/09 08:12:56;;;;;;;6.15;1.70;;;22.50;99.90;;;;;;5127781;27;20494;-75
2022/07/09 08:15:22;;;;;;;5.90;1.98;;;22.70;99.90;;;;;;5109860;27;20039;-75
2022/07/09 08:17:49;;;;;;;6.18;2.08;;;22.40;99.90;;;;;;5104911;27;20058;-76
2022/07/09 08:20:16;;;;;;;5.28;1.92;;;22.20;99.90;;;;;;5129577;27;20054;-76
2022/07/09 08:22:43;;;;;;;6.40;1.65;;;22.10;99.90;;;;;;5112051;27;20056;-74
2022/07/09 08:25:10;;;;;;;5.55;1.58;;;22.40;99.90;;;;;;5109496;27;20043;-74
2022/07/09 08:27:37;;;;;;;7.65;1.85;;;22.60;99.90;;;;;;5114626;27;20055;-74
2022/07/09 08:30:06;;;;;;;8.75;1.77;;;22.70;99.90;;;;;;5112783;27;20051;-76
2022/07/09 08:32:34;;;;;;;5.30;1.92;;;22.80;99.90;;;;;;5110309;27;20111;-74
2022/07/09 08:35:00;;;;;;;8.52;1.70;;;23.30;99.90;;;;;;5111988;27;20391;-74
2022/07/09 08:37:27;;;;;;;5.18;1.60;;;23.50;99.90;;;;;;5129883;27;20039;-75
2022/07/09 08:39:54;;;;;;;4.35;1.27;;;23.90;99.90;;;;;;5113104;27;20051;-75
2022/07/09 08:42:21;;;;;;;8.00;1.30;;;24.60;99.90;;;;;;5132005;27;20047;-77
2022/07/09 08:44:48;;;;;;;4.40;1.42;;;25.40;99.90;;;;;;5109379;27;20059;-75
2022/07/09 08:47:17;;;;;;;4.97;1.30;;;25.90;99.90;;;;;;5111516;27;20043;-75
2022/07/09 08:49:47;;;;;;;7.82;1.60;;;26.60;99.90;;;;;;5129979;27;20134;-76
2022/07/09 08:52:16;;;;;;;3.65;1.80;;;26.60;99.90;;;;;;5110662;27;20112;-76
2022/07/09 08:54:45;;;;;;;7.90;1.75;;;26.50;99.90;;;;;;5132756;27;20047;-77
2022/07/09 08:57:11;;;;;;;2.83;1.20;;;26.40;99.90;;;;;;5112781;27;20051;-75
2022/07/09 08:59:38;;;;;;;4.88;1.70;;;26.80;99.90;;;;;;5128318;27;20055;-77
2022/07/09 09:02:06;;;;;;;4.97;1.27;;;26.90;99.30;;;;;;5126881;27;20043;-75
2022/07/09 09:04:35;;;;;;;7.32;1.33;;;26.60;98.80;;;;;;5121980;27;20486;-73
2022/07/09 09:07:13;;;;;;;4.82;1.60;;;26.40;98.60;;;;;;5129614;27;20471;-75
2022/07/09 09:09:39;;;;;;;5.20;1.30;;;26.70;96.70;;;;;;5134548;27;20047;-76
2022/07/09 09:12:07;;;;;;;4.65;1.42;;;27.00;98.00;;;;;;5133377;27;20046;-75
2022/07/09 09:14:34;;;;;;;5.70;1.40;;;27.40;97.50;;;;;;5121252;27;20059;-75
2022/07/09 09:17:05;;;;;;;4.93;1.20;;;27.80;96.80;;;;;;5114213;28;20051;-75
2022/07/09 09:19:32;;;;;;;4.28;1.60;;;28.00;95.20;;;;;;5095772;28;20051;-75
2022/07/09 09:22:00;;;;;;;5.32;1.50;;;27.70;96.10;;;;;;5095970;28;20060;-75
2022/07/09 09:24:29;;;;;;;3.38;1.17;;;27.80;95.10;;;;;;5096415;28;20051;-76
2022/07/09 09:26:58;;;;;;;4.28;1.30;;;27.60;94.80;;;;;;5113315;28;20043;-75
2022/07/09 09:29:26;;;;;;;5.88;1.52;;;27.70;94.20;;;;;;5095747;27;20131;-75
2022/07/09 09:31:52;;;;;;;5.53;1.50;;;27.20;94.20;;;;;;5114041;28;20048;-75
2022/07/09 09:34:20;;;;;;;5.15;1.50;;;26.60;94.50;;;;;;5113313;28;20073;-75
2022/07/09 09:36:50;;;;;;;7.68;1.45;;;26.00;94.80;;;;;;5095378;28;20073;-76
2022/07/09 09:39:19;;;;;;;3.47;1.50;;;25.80;95.10;;;;;;5095766;28;20047;-75
2022/07/09 09:41:48;;;;;;;4.50;1.40;;;25.80;94.70;;;;;;5094900;28;20163;-75
2022/07/09 09:44:17;;;;;;;4.63;1.65;;;25.90;95.30;;;;;;5094512;28;20105;-75
2022/07/09 09:46:45;;;;;;;6.68;1.27;;;25.90;95.30;;;;;;5113390;28;20054;-76
2022/07/09 09:49:15;;;;;;;6.07;1.50;;;25.70;94.90;;;;;;5094810;28;20047;-75
2022/07/09 09:51:48;;;;;;;3.85;1.27;;;25.70;95.00;;;;;;5113815;28;20047;-76
2022/07/09 09:54:16;;;;;;;4.93;1.42;;;26.00;94.50;;;;;;5113868;28;20102;-76
2022/07/09 09:56:45;;;;;;;4.90;1.30;;;26.20;94.50;;;;;;5094659;28;20039;-75
2022/07/09 09:59:13;;;;;;;5.60;1.27;;;26.50;93.90;;;;;;5095773;28;20055;-75
2022/07/09 10:01:41;;;;;;;4.75;1.60;;;26.70;93.70;;;;;;5094773;28;20101;-75
2022/07/09 10:04:11;;;;;;;3.60;1.35;;;26.90;93.50;;;;;;5113602;28;20051;-76
2022/07/09 10:06:39;;;;;;;6.53;2.03;;;26.90;93.20;;;;;;5095576;28;20055;-76
2022/07/09 10:09:08;;;;;;;9.25;1.80;;;26.90;93.20;;;;;;5103227;28;20051;-77
2022/07/09 10:11:42;;;;;;;4.63;1.60;;;27.00;93.50;;;;;;5101506;28;20138;-77
2022/07/09 10:14:16;;;;;;;6.80;1.83;;;26.80;92.80;;;;;;5126826;27;20122;-77
2022/07/09 10:16:43;;;;;;;6.88;1.83;;;27.40;93.40;;;;;;5094257;28;20039;-77
2022/07/09 10:19:11;;;;;;;5.18;1.35;;;27.40;93.60;;;;;;5097832;28;20043;-75
2022/07/09 10:21:40;;;;;;;12.30;2.22;;;26.70;93.90;;;;;;5114003;28;20050;-76
2022/07/09 10:24:09;;;;;;;6.10;1.55;;;25.50;95.80;;;;;;5127917;28;20046;-76
2022/07/09 10:26:38;;;;;;;5.45;1.92;;;24.60;97.60;;;;;;5098587;28;20527;-75
2022/07/09 10:29:20;;;;;;;8.68;2.50;;;23.80;99.90;;;;;;5094106;28;20055;-75
2022/07/09 10:31:48;;;;;;;7.97;2.10;;;23.00;99.90;;;;;;5103128;28;20055;-75
2022/07/09 10:34:32;;;;;;;8.13;2.05;;;22.50;99.90;;;;;;5105639;28;20488;-75
2022/07/09 10:36:59;;;;;;;7.25;2.17;;;22.40;99.90;;;;;;5125484;28;20478;-75
2022/07/09 10:39:26;;;;;;;7.70;2.30;;;22.20;99.90;;;;;;5124286;28;20089;-76
2022/07/09 10:42:01;;;;;;;6.82;2.25;;;22.20;99.90;;;;;;5120404;28;20487;-75
2022/07/09 10:44:34;;;;;;;7.93;1.73;;;22.40;99.90;;;;;;5120966;27;20050;-76
2022/07/09 10:47:01;;;;;;;7.63;1.88;;;22.50;99.90;;;;;;5113039;27;20426;-75
2022/07/09 10:49:28;;;;;;;16.08;2.63;;;22.60;99.90;;;;;;5137470;27;20054;-74
2022/07/09 10:51:57;;;;;;;6.78;2.00;;;22.60;99.90;;;;;;5117202;27;20055;-75
2022/07/09 10:54:25;;;;;;;9.23;1.63;;;22.80;99.90;;;;;;5128316;27;20137;-76
2022/07/09 10:56:52;;;;;;;4.93;1.55;;;23.00;99.90;;;;;;5117629;27;20047;-74
2022/07/09 10:59:19;;;;;;;9.88;1.40;;;23.20;99.90;;;;;;5125259;27;20093;-75
2022/07/09 11:01:48;;;;;;;4.03;1.30;;;23.40;99.80;;;;;;5105137;27;20051;-76
2022/07/09 11:04:28;;;;;;;6.13;1.15;;;23.50;98.50;;;;;;5106053;27;20066;-76
2022/07/09 11:06:56;;;;;;;7.53;1.55;;;24.00;96.70;;;;;;5099151;28;20558;-74
2022/07/09 11:09:23;;;;;;;5.43;1.60;;;24.40;96.70;;;;;;5103307;27;20522;-77
2022/07/09 11:11:50;;;;;;;6.25;1.50;;;24.80;95.90;;;;;;5124248;27;20093;-75
2022/07/09 11:14:17;;;;;;;3.25;1.20;;;25.40;95.30;;;;;;5117825;27;20047;-75
2022/07/09 11:16:55;;;;;;;6.63;1.70;;;25.70;94.40;;;;;;5135391;27;20479;-74
2022/07/09 11:19:22;;;;;;;5.85;1.27;;;25.80;92.00;;;;;;5126605;27;20077;-75
2022/07/09 11:21:50;;;;;;;5.32;1.35;;;25.80;92.70;;;;;;5115145;27;20059;-74
2022/07/09 11:24:18;;;;;;;4.10;1.00;;;25.90;91.90;;;;;;5114660;27;20086;-76
2022/07/09 11:26:46;;;;;;;5.95;1.15;;;26.20;91.60;;;;;;5119012;27;20051;-76
2022/07/09 11:29:14;;;;;;;3.78;0.90;;;26.50;90.60;;;;;;5117215;27;20051;-75
2022/07/09 11:31:48;;;;;;;3.03;0.95;;;26.70;89.50;;;;;;5125958;27;20069;-76
2022/07/09 11:34:18;;;;;;;5.38;1.40;;;27.20;87.00;;;;;;5110200;27;20086;-76
2022/07/09 11:36:48;;;;;;;5.15;1.63;;;27.50;87.90;;;;;;5116770;27;20458;-75
2022/07/09 11:39:26;;;;;;;4.43;1.10;;;28.00;87.40;;;;;;5114029;27;20128;-76
2022/07/09 11:41:54;;;;;;;6.20;1.35;;;28.30;83.00;;;;;;5114458;27;20051;-76
2022/07/09 11:44:23;;;;;;;3.85;1.05;;;28.40;84.30;;;;;;5115355;28;20108;-76
2022/07/09 11:47:08;;;;;;;2.95;1.10;;;28.70;83.40;;;;;;5114768;28;20100;-75
2022/07/09 11:49:38;;;;;;;6.43;1.10;;;28.70;79.70;;;;;;5116493;27;20510;-75
2022/07/09 11:52:16;;;;;;;4.78;0.90;;;28.80;81.50;;;;;;5115546;27;20051;-76
2022/07/09 11:54:55;;;;;;;5.50;1.35;;;28.70;81.80;;;;;;5108227;28;20101;-76
2022/07/09 11:57:23;;;;;;;4.18;1.23;;;28.90;79.60;;;;;;5115152;27;20196;-76
2022/07/09 11:59:50;;;;;;;5.07;1.13;;;28.80;81.90;;;;;;5115902;28;20058;-76
2022/07/09 12:02:24;;;;;;;4.35;0.90;;;29.00;81.10;;;;;;5111138;28;20059;-76
2022/07/09 12:04:53;;;;;;;3.50;1.10;;;29.00;78.10;;;;;;5099221;28;20124;-77
2022/07/09 12:07:19;;;;;;;3.53;0.93;;;29.10;78.80;;;;;;5109275;28;20376;-77
2022/07/09 12:09:46;;;;;;;4.88;1.30;;;29.40;78.60;;;;;;5116177;27;20051;-76
2022/07/09 12:12:15;;;;;;;4.22;1.10;;;29.40;78.00;;;;;;5105691;28;20097;-76
2022/07/09 12:14:42;;;;;;;6.47;1.88;;;29.60;78.10;;;;;;5112235;27;20051;-76
2022/07/09 12:17:19;;;;;;;3.13;1.02;;;29.80;76.70;;;;;;5113083;27;20043;-76
2022/07/09 12:19:46;;;;;;;4.90;1.33;;;29.70;73.60;;;;;;5114029;27;20055;-76
2022/07/09 12:22:14;;;;;;;2.70;1.02;;;29.60;75.30;;;;;;5135608;27;20047;-75
2022/07/09 12:24:42;;;;;;;5.00;1.27;;;29.50;75.40;;;;;;5131925;27;20051;-76
2022/07/09 12:27:09;;;;;;;7.53;1.30;;;29.50;76.20;;;;;;5126164;27;20102;-76
2022/07/09 12:29:37;;;;;;;10.65;1.77;;;29.10;76.00;;;;;;5096749;28;20134;-77
2022/07/09 12:32:04;;;;;;;16.35;2.20;;;29.50;75.90;;;;;;5129930;27;20448;-77
2022/07/09 12:34:31;;;;;;;13.65;2.88;;;29.50;75.40;;;;;;5101051;28;20051;-77
2022/07/09 12:36:58;;;;;;;28.05;3.78;;;29.50;75.70;;;;;;5099678;28;20048;-76
2022/07/09 12:39:26;;;;;;;9.15;1.73;;;29.00;74.90;;;;;;5115563;27;20054;-77
2022/07/09 12:41:53;;;;;;;11.48;2.22;;;28.80;74.80;;;;;;5124821;27;20055;-77
2022/07/09 12:44:20;;;;;;;8.52;1.70;;;28.70;76.10;;;;;;5094531;28;20058;-75
2022/07/09 12:46:47;;;;;;;9.82;2.17;;;28.80;75.70;;;;;;5100184;28;20112;-82
2022/07/09 12:49:14;;;;;;;12.82;1.75;;;28.50;75.80;;;;;;5122033;27;20062;-82